sensor_id;sensor_type;location;lat;lon;timestamp;temperature;humidity
59855;DHT22;45732;52.850;6.896;2023-03-17T00:00:48;7.70;99.90
59855;DHT22;45732;52.850;6.896;2023-03-17T00:03:26;7.70;99.90
59855;DHT22;45732;52.850;6.896;2023-03-17T00:05:55;7.70;99.90
59855;DHT22;45732;52.850;6.896;2023-03-17T00:08:34;7.70;99.90
59855;DHT22;45732;52.850;6.896;2023-03-17T00:11:01;7.80;99.90
59855;DHT22;45732;52.850;6.896;2023-03-17T00:13:27;7.70;99.90
59855;DHT22;45732;52.850;6.896;2023-03-17T00:15:58;7.70;99.90
59855;DHT22;45732;52.850;6.896;2023-03-17T00:18:25;7.70;99.90
59855;DHT22;45732;52.850;6.896;2023-03-17T00:20:51;7.70;99.90
59855;DHT22;45732;52.850;6.896;2023-03-17T00:23:20;7.70;99.90
59855;DHT22;45732;52.850;6.896;2023-03-17T00:25:46;7.70;99.90
59855;DHT22;45732;52.850;6.896;2023-03-17T00:28:17;7.70;99.90
59855;DHT22;45732;52.850;6.896;2023-03-17T00:30:44;7.70;99.90
59855;DHT22;45732;52.850;6.896;2023-03-17T00:33:10;7.70;99.90
59855;DHT22;45732;52.850;6.896;2023-03-17T00:35:37;7.70;99.90
59855;DHT22;45732;52.850;6.896;2023-03-17T00:38:05;7.60;99.90
59855;DHT22;45732;52.850;6.896;2023-03-17T00:40:34;7.70;99.90
59855;DHT22;45732;52.850;6.896;2023-03-17T00:43:01;7.70;99.90
59855;DHT22;45732;52.850;6.896;2023-03-17T00:45:29;7.70;99.90
59855;DHT22;45732;52.850;6.896;2023-03-17T00:47:55;7.60;99.90
59855;DHT22;45732;52.850;6.896;2023-03-17T00:50:24;7.60;99.90
59855;DHT22;45732;52.850;6.896;2023-03-17T00:52:52;7.60;99.90
59855;DHT22;45732;52.850;6.896;2023-03-17T00:55:19;7.60;99.90
59855;DHT22;45732;52.850;6.896;2023-03-17T00:57:46;7.60;99.90
59855;DHT22;45732;52.850;6.896;2023-03-17T01:00:25;7.60;99.90
59855;DHT22;45732;52.850;6.896;2023-03-17T01:02:55;7.60;99.90
59855;DHT22;45732;52.850;6.896;2023-03-17T01:05:24;7.60;99.90
59855;DHT22;45732;52.850;6.896;2023-03-17T01:07:53;7.60;99.90
59855;DHT22;45732;52.850;6.896;2023-03-17T01:10:25;7.60;99.90
59855;DHT22;45732;52.850;6.896;2023-03-17T01:12:52;7.60;99.90
59855;DHT22;45732;52.850;6.896;2023-03-17T01:15:19;7.50;99.90
59855;DHT22;45732;52.850;6.896;2023-03-17T01:17:46;7.50;99.90
59855;DHT22;45732;52.850;6.896;2023-03-17T01:20:19;7.50;99.90
59855;DHT22;45732;52.850;6.896;2023-03-17T01:22:46;7.50;99.90
59855;DHT22;45732;52.850;6.896;2023-03-17T01:25:13;7.40;99.90
59855;DHT22;45732;52.850;6.896;2023-03-17T01:27:40;7.50;99.90
59855;DHT22;45732;52.850;6.896;2023-03-17T01:32:44;7.50;99.90
59855;DHT22;45732;52.850;6.896;2023-03-17T01:35:10;7.40;99.90
59855;DHT22;45732;52.850;6.896;2023-03-17T01:37:36;7.40;99.90
59855;DHT22;45732;52.850;6.896;2023-03-17T01:40:03;7.40;99.90
59855;DHT22;45732;52.850;6.896;2023-03-17T01:42:29;7.40;99.90
59855;DHT22;45732;52.850;6.896;2023-03-17T01:45:00;7.40;99.90
59855;DHT22;45732;52.850;6.896;2023-03-17T01:47:27;7.40;99.90
59855;DHT22;45732;52.850;6.896;2023-03-17T01:49:55;7.40;99.90
59855;DHT22;45732;52.850;6.896;2023-03-17T01:52:23;7.40;99.90
59855;DHT22;45732;52.850;6.896;2023-03-17T01:57:32;7.40;99.90
59855;DHT22;45732;52.850;6.896;2023-03-17T02:00:02;7.40;99.90
59855;DHT22;45732;52.850;6.896;2023-03-17T02:02:32;7.40;99.90
59855;DHT22;45732;52.850;6.896;2023-03-17T02:04:59;7.30;99.90
59855;DHT22;45732;52.850;6.896;2023-03-17T02:07:26;7.40;99.90
59855;DHT22;45732;52.850;6.896;2023-03-17T02:09:53;7.40;99.90
59855;DHT22;45732;52.850;6.896;2023-03-17T02:12:21;7.40;99.90
59855;DHT22;45732;52.850;6.896;2023-03-17T02:14:49;7.40;99.90
59855;DHT22;45732;52.850;6.896;2023-03-17T02:17:17;7.40;99.90
59855;DHT22;45732;52.850;6.896;2023-03-17T02:19:43;7.30;99.90
59855;DHT22;45732;52.850;6.896;2023-03-17T02:22:10;7.40;99.90
59855;DHT22;45732;52.850;6.896;2023-03-17T02:24:46;7.40;99.90
59855;DHT22;45732;52.850;6.896;2023-03-17T02:27:20;7.40;99.90
59855;DHT22;45732;52.850;6.896;2023-03-17T02:29:47;7.40;99.90
59855;DHT22;45732;52.850;6.896;2023-03-17T02:32:15;7.40;99.90
59855;DHT22;45732;52.850;6.896;2023-03-17T02:34:43;7.40;99.90
59855;DHT22;45732;52.850;6.896;2023-03-17T02:37:09;7.40;99.90
59855;DHT22;45732;52.850;6.896;2023-03-17T02:39:35;7.40;99.90
59855;DHT22;45732;52.850;6.896;2023-03-17T02:42:03;7.40;99.90
59855;DHT22;45732;52.850;6.896;2023-03-17T02:44:29;7.30;99.90
59855;DHT22;45732;52.850;6.896;2023-03-17T02:46:54;7.40;99.90
59855;DHT22;45732;52.850;6.896;2023-03-17T02:49:21;7.40;99.90
59855;DHT22;45732;52.850;6.896;2023-03-17T02:51:47;7.30;99.90
59855;DHT22;45732;52.850;6.896;2023-03-17T02:54:13;7.40;99.90
59855;DHT22;45732;52.850;6.896;2023-03-17T02:56:38;7.30;99.90
59855;DHT22;45732;52.850;6.896;2023-03-17T02:59:05;7.30;99.90
59855;DHT22;45732;52.850;6.896;2023-03-17T03:01:31;7.30;99.90
59855;DHT22;45732;52.850;6.896;2023-03-17T03:03:58;7.30;99.90
59855;DHT22;45732;52.850;6.896;2023-03-17T03:06:24;7.30;99.90
59855;DHT22;45732;52.850;6.896;2023-03-17T03:08:50;7.30;99.90
59855;DHT22;45732;52.850;6.896;2023-03-17T03:11:16;7.30;99.90
59855;DHT22;45732;52.850;6.896;2023-03-17T03:13:42;7.30;99.90
59855;DHT22;45732;52.850;6.896;2023-03-17T03:16:08;7.20;99.90
59855;DHT22;45732;52.850;6.896;2023-03-17T03:18:34;7.30;99.90
59855;DHT22;45732;52.850;6.896;2023-03-17T03:21:02;7.30;99.90
59855;DHT22;45732;52.850;6.896;2023-03-17T03:23:28;7.30;99.90
59855;DHT22;45732;52.850;6.896;2023-03-17T03:25:54;7.30;99.90
59855;DHT22;45732;52.850;6.896;2023-03-17T03:28:20;7.20;99.90
59855;DHT22;45732;52.850;6.896;2023-03-17T03:30:46;7.30;99.90
59855;DHT22;45732;52.850;6.896;2023-03-17T03:33:13;7.20;99.90
59855;DHT22;45732;52.850;6.896;2023-03-17T03:35:39;7.20;99.90
59855;DHT22;45732;52.850;6.896;2023-03-17T03:38:05;7.20;99.90
59855;DHT22;45732;52.850;6.896;2023-03-17T03:40:31;7.20;99.90
59855;DHT22;45732;52.850;6.896;2023-03-17T03:42:57;7.20;99.90
59855;DHT22;45732;52.850;6.896;2023-03-17T03:45:23;7.20;99.90
59855;DHT22;45732;52.850;6.896;2023-03-17T03:47:49;7.20;99.90
59855;DHT22;45732;52.850;6.896;2023-03-17T03:50:15;7.20;99.90
59855;DHT22;45732;52.850;6.896;2023-03-17T03:52:41;7.20;99.90
59855;DHT22;45732;52.850;6.896;2023-03-17T03:55:07;7.20;99.90
59855;DHT22;45732;52.850;6.896;2023-03-17T03:57:34;7.20;99.90
59855;DHT22;45732;52.850;6.896;2023-03-17T03:59:59;7.20;99.90
59855;DHT22;45732;52.850;6.896;2023-03-17T04:02:25;7.20;99.90
59855;DHT22;45732;52.850;6.896;2023-03-17T04:04:52;7.20;99.90
59855;DHT22;45732;52.850;6.896;2023-03-17T04:07:19;7.20;99.90
59855;DHT22;45732;52.850;6.896;2023-03-17T04:09:46;7.20;99.90
59855;DHT22;45732;52.850;6.896;2023-03-17T04:12:14;7.20;99.90
59855;DHT22;45732;52.850;6.896;2023-03-17T04:14:40;7.20;99.90
59855;DHT22;45732;52.850;6.896;2023-03-17T04:17:12;7.20;99.90
59855;DHT22;45732;52.850;6.896;2023-03-17T04:19:38;7.20;99.90
59855;DHT22;45732;52.850;6.896;2023-03-17T04:22:05;7.20;99.90
59855;DHT22;45732;52.850;6.896;2023-03-17T04:24:32;7.10;99.90
59855;DHT22;45732;52.850;6.896;2023-03-17T04:26:59;7.20;99.90
59855;DHT22;45732;52.850;6.896;2023-03-17T04:29:26;7.20;99.90
59855;DHT22;45732;52.850;6.896;2023-03-17T04:31:51;7.20;99.90
59855;DHT22;45732;52.850;6.896;2023-03-17T04:34:18;7.20;99.90
59855;DHT22;45732;52.850;6.896;2023-03-17T04:36:45;7.20;99.90
59855;DHT22;45732;52.850;6.896;2023-03-17T04:39:12;7.10;99.90
59855;DHT22;45732;52.850;6.896;2023-03-17T04:41:38;7.10;99.90
59855;DHT22;45732;52.850;6.896;2023-03-17T04:44:04;7.20;99.90
59855;DHT22;45732;52.850;6.896;2023-03-17T04:46:30;7.10;99.90
59855;DHT22;45732;52.850;6.896;2023-03-17T04:48:56;7.10;99.90
59855;DHT22;45732;52.850;6.896;2023-03-17T04:51:22;7.10;99.90
59855;DHT22;45732;52.850;6.896;2023-03-17T04:53:48;7.20;99.90
59855;DHT22;45732;52.850;6.896;2023-03-17T04:56:14;7.10;99.90
59855;DHT22;45732;52.850;6.896;2023-03-17T04:58:41;7.10;99.90
59855;DHT22;45732;52.850;6.896;2023-03-17T05:01:07;7.10;99.90
59855;DHT22;45732;52.850;6.896;2023-03-17T05:03:33;7.10;99.90
59855;DHT22;45732;52.850;6.896;2023-03-17T05:05:59;7.10;99.90
59855;DHT22;45732;52.850;6.896;2023-03-17T05:08:25;7.10;99.90
59855;DHT22;45732;52.850;6.896;2023-03-17T05:10:53;7.10;99.90
59855;DHT22;45732;52.850;6.896;2023-03-17T05:13:19;7.10;99.90
59855;DHT22;45732;52.850;6.896;2023-03-17T05:15:49;7.10;99.90
59855;DHT22;45732;52.850;6.896;2023-03-17T05:18:16;7.10;99.90
59855;DHT22;45732;52.850;6.896;2023-03-17T05:20:43;7.10;99.90
59855;DHT22;45732;52.850;6.896;2023-03-17T05:23:09;7.10;99.90
59855;DHT22;45732;52.850;6.896;2023-03-17T05:25:35;7.20;99.90
59855;DHT22;45732;52.850;6.896;2023-03-17T05:28:01;7.20;99.90
59855;DHT22;45732;52.850;6.896;2023-03-17T05:30:27;7.10;99.90
59855;DHT22;45732;52.850;6.896;2023-03-17T05:32:53;7.20;99.90
59855;DHT22;45732;52.850;6.896;2023-03-17T05:35:19;7.10;99.90
59855;DHT22;45732;52.850;6.896;2023-03-17T05:37:45;7.20;99.90
59855;DHT22;45732;52.850;6.896;2023-03-17T05:40:12;7.20;99.90
59855;DHT22;45732;52.850;6.896;2023-03-17T05:42:39;7.10;99.90
59855;DHT22;45732;52.850;6.896;2023-03-17T05:45:06;7.10;99.90
59855;DHT22;45732;52.850;6.896;2023-03-17T05:47:33;7.20;99.90
59855;DHT22;45732;52.850;6.896;2023-03-17T05:49:59;7.20;99.90
59855;DHT22;45732;52.850;6.896;2023-03-17T05:52:25;7.20;99.90
59855;DHT22;45732;52.850;6.896;2023-03-17T05:54:52;7.30;99.90
59855;DHT22;45732;52.850;6.896;2023-03-17T05:57:19;7.20;99.90
59855;DHT22;45732;52.850;6.896;2023-03-17T05:59:45;7.20;99.90
59855;DHT22;45732;52.850;6.896;2023-03-17T06:02:12;7.20;99.90
59855;DHT22;45732;52.850;6.896;2023-03-17T06:04:38;7.30;99.90
59855;DHT22;45732;52.850;6.896;2023-03-17T06:07:04;7.40;99.90
59855;DHT22;45732;52.850;6.896;2023-03-17T06:09:31;7.40;99.90
59855;DHT22;45732;52.850;6.896;2023-03-17T06:11:58;7.40;99.90
59855;DHT22;45732;52.850;6.896;2023-03-17T06:14:24;7.40;99.90
59855;DHT22;45732;52.850;6.896;2023-03-17T06:16:50;7.40;99.90
59855;DHT22;45732;52.850;6.896;2023-03-17T06:19:16;7.40;99.90
59855;DHT22;45732;52.850;6.896;2023-03-17T06:21:41;7.40;99.90
59855;DHT22;45732;52.850;6.896;2023-03-17T06:24:08;7.50;99.90
59855;DHT22;45732;52.850;6.896;2023-03-17T06:26:34;7.50;99.90
59855;DHT22;45732;52.850;6.896;2023-03-17T06:29:02;7.60;99.90
59855;DHT22;45732;52.850;6.896;2023-03-17T06:31:28;7.70;99.90
59855;DHT22;45732;52.850;6.896;2023-03-17T06:33:54;7.80;99.90
59855;DHT22;45732;52.850;6.896;2023-03-17T06:36:23;7.90;99.90
59855;DHT22;45732;52.850;6.896;2023-03-17T06:38:49;8.00;99.90
59855;DHT22;45732;52.850;6.896;2023-03-17T06:41:15;8.00;99.90
59855;DHT22;45732;52.850;6.896;2023-03-17T06:43:40;8.10;99.90
59855;DHT22;45732;52.850;6.896;2023-03-17T06:46:06;8.30;99.90
59855;DHT22;45732;52.850;6.896;2023-03-17T06:48:33;8.40;99.90
59855;DHT22;45732;52.850;6.896;2023-03-17T06:50:59;8.50;99.90
59855;DHT22;45732;52.850;6.896;2023-03-17T06:53:25;8.60;99.90
59855;DHT22;45732;52.850;6.896;2023-03-17T06:55:51;8.70;99.90
59855;DHT22;45732;52.850;6.896;2023-03-17T06:58:16;8.70;99.90
59855;DHT22;45732;52.850;6.896;2023-03-17T07:00:42;8.80;99.90
59855;DHT22;45732;52.850;6.896;2023-03-17T07:03:11;8.90;99.90
59855;DHT22;45732;52.850;6.896;2023-03-17T07:05:37;9.00;99.90
59855;DHT22;45732;52.850;6.896;2023-03-17T07:08:04;9.10;99.90
59855;DHT22;45732;52.850;6.896;2023-03-17T07:10:30;9.10;99.90
59855;DHT22;45732;52.850;6.896;2023-03-17T07:12:57;9.10;99.90
59855;DHT22;45732;52.850;6.896;2023-03-17T07:15:23;9.20;99.90
59855;DHT22;45732;52.850;6.896;2023-03-17T07:17:49;9.20;99.90
59855;DHT22;45732;52.850;6.896;2023-03-17T07:20:15;9.30;99.90
59855;DHT22;45732;52.850;6.896;2023-03-17T07:22:41;9.30;99.90
59855;DHT22;45732;52.850;6.896;2023-03-17T07:25:07;9.40;99.90
59855;DHT22;45732;52.850;6.896;2023-03-17T07:27:34;9.30;99.90
59855;DHT22;45732;52.850;6.896;2023-03-17T07:30:00;9.40;99.90
59855;DHT22;45732;52.850;6.896;2023-03-17T07:32:29;9.40;99.90
59855;DHT22;45732;52.850;6.896;2023-03-17T07:34:55;9.40;99.90
59855;DHT22;45732;52.850;6.896;2023-03-17T07:37:22;9.40;99.90
59855;DHT22;45732;52.850;6.896;2023-03-17T07:39:48;9.50;99.90
59855;DHT22;45732;52.850;6.896;2023-03-17T07:42:15;9.50;99.90
59855;DHT22;45732;52.850;6.896;2023-03-17T07:44:42;9.50;99.90
59855;DHT22;45732;52.850;6.896;2023-03-17T07:47:09;9.60;99.90
59855;DHT22;45732;52.850;6.896;2023-03-17T07:49:36;9.60;99.90
59855;DHT22;45732;52.850;6.896;2023-03-17T07:52:03;9.60;99.90
59855;DHT22;45732;52.850;6.896;2023-03-17T07:54:29;9.70;99.90
59855;DHT22;45732;52.850;6.896;2023-03-17T07:56:55;9.70;99.90
59855;DHT22;45732;52.850;6.896;2023-03-17T07:59:21;9.70;99.90
59855;DHT22;45732;52.850;6.896;2023-03-17T08:01:47;9.70;99.90
59855;DHT22;45732;52.850;6.896;2023-03-17T08:04:13;9.80;99.90
59855;DHT22;45732;52.850;6.896;2023-03-17T08:06:40;9.90;99.90
59855;DHT22;45732;52.850;6.896;2023-03-17T08:09:07;9.90;99.90
59855;DHT22;45732;52.850;6.896;2023-03-17T08:11:34;10.00;99.90
59855;DHT22;45732;52.850;6.896;2023-03-17T08:14:00;10.00;99.90
59855;DHT22;45732;52.850;6.896;2023-03-17T08:16:28;10.00;99.90
59855;DHT22;45732;52.850;6.896;2023-03-17T08:18:54;10.10;99.90
59855;DHT22;45732;52.850;6.896;2023-03-17T08:21:19;10.10;99.90
59855;DHT22;45732;52.850;6.896;2023-03-17T08:23:45;10.20;99.90
59855;DHT22;45732;52.850;6.896;2023-03-17T08:26:11;10.30;99.90
59855;DHT22;45732;52.850;6.896;2023-03-17T08:28:39;10.40;99.90
59855;DHT22;45732;52.850;6.896;2023-03-17T08:31:09;10.60;99.90
59855;DHT22;45732;52.850;6.896;2023-03-17T08:33:36;10.70;99.90
59855;DHT22;45732;52.850;6.896;2023-03-17T08:36:04;10.70;99.90
59855;DHT22;45732;52.850;6.896;2023-03-17T08:38:31;10.80;99.90
59855;DHT22;45732;52.850;6.896;2023-03-17T08:41:04;10.90;99.90
59855;DHT22;45732;52.850;6.896;2023-03-17T08:43:31;11.00;99.90
59855;DHT22;45732;52.850;6.896;2023-03-17T08:46:12;11.00;99.90
59855;DHT22;45732;52.850;6.896;2023-03-17T08:48:38;11.00;99.90
59855;DHT22;45732;52.850;6.896;2023-03-17T08:51:05;11.00;99.90
59855;DHT22;45732;52.850;6.896;2023-03-17T08:53:32;11.10;99.90
59855;DHT22;45732;52.850;6.896;2023-03-17T08:55:59;11.10;99.90
59855;DHT22;45732;52.850;6.896;2023-03-17T08:58:25;11.10;99.90
59855;DHT22;45732;52.850;6.896;2023-03-17T09:00:51;11.10;99.90
59855;DHT22;45732;52.850;6.896;2023-03-17T09:03:19;11.10;99.90
59855;DHT22;45732;52.850;6.896;2023-03-17T09:05:46;11.10;99.90
59855;DHT22;45732;52.850;6.896;2023-03-17T09:08:12;11.10;99.90
59855;DHT22;45732;52.850;6.896;2023-03-17T09:10:38;11.10;99.90
59855;DHT22;45732;52.850;6.896;2023-03-17T09:13:04;11.10;99.90
59855;DHT22;45732;52.850;6.896;2023-03-17T09:15:31;11.20;99.90
59855;DHT22;45732;52.850;6.896;2023-03-17T09:17:58;11.30;99.90
59855;DHT22;45732;52.850;6.896;2023-03-17T09:20:24;11.40;99.90
59855;DHT22;45732;52.850;6.896;2023-03-17T09:22:50;11.40;99.90
59855;DHT22;45732;52.850;6.896;2023-03-17T09:25:16;11.50;99.90
59855;DHT22;45732;52.850;6.896;2023-03-17T09:27:42;11.60;99.90
59855;DHT22;45732;52.850;6.896;2023-03-17T09:30:09;11.60;99.90
59855;DHT22;45732;52.850;6.896;2023-03-17T09:32:38;11.60;99.90
59855;DHT22;45732;52.850;6.896;2023-03-17T09:35:05;11.60;99.90
59855;DHT22;45732;52.850;6.896;2023-03-17T09:37:31;11.70;99.90
59855;DHT22;45732;52.850;6.896;2023-03-17T09:39:57;11.80;99.90
59855;DHT22;45732;52.850;6.896;2023-03-17T09:51:05;12.10;99.90
59855;DHT22;45732;52.850;6.896;2023-03-17T09:56:10;12.20;99.90
59855;DHT22;45732;52.850;6.896;2023-03-17T09:58:38;12.20;99.90
59855;DHT22;45732;52.850;6.896;2023-03-17T10:01:08;12.20;99.90
59855;DHT22;45732;52.850;6.896;2023-03-17T10:03:35;12.20;99.90
59855;DHT22;45732;52.850;6.896;2023-03-17T10:06:20;12.30;99.90
59855;DHT22;45732;52.850;6.896;2023-03-17T10:09:13;12.30;99.90
59855;DHT22;45732;52.850;6.896;2023-03-17T10:11:44;12.30;99.90
59855;DHT22;45732;52.850;6.896;2023-03-17T10:17:15;12.40;99.90
59855;DHT22;45732;52.850;6.896;2023-03-17T10:20:01;12.50;99.90
59855;DHT22;45732;52.850;6.896;2023-03-17T10:22:39;12.60;99.90
59855;DHT22;45732;52.850;6.896;2023-03-17T10:25:13;12.70;99.90
59855;DHT22;45732;52.850;6.896;2023-03-17T10:27:40;12.80;99.90
59855;DHT22;45732;52.850;6.896;2023-03-17T10:30:19;12.80;99.90
59855;DHT22;45732;52.850;6.896;2023-03-17T10:32:45;12.90;99.90
59855;DHT22;45732;52.850;6.896;2023-03-17T10:35:12;13.10;99.90
59855;DHT22;45732;52.850;6.896;2023-03-17T10:37:39;13.10;99.90
59855;DHT22;45732;52.850;6.896;2023-03-17T10:40:06;13.30;99.90
59855;DHT22;45732;52.850;6.896;2023-03-17T10:42:45;13.40;99.90
59855;DHT22;45732;52.850;6.896;2023-03-17T10:45:16;13.50;99.90
59855;DHT22;45732;52.850;6.896;2023-03-17T10:47:47;13.50;99.90
59855;DHT22;45732;52.850;6.896;2023-03-17T10:52:59;13.70;99.90
59855;DHT22;45732;52.850;6.896;2023-03-17T10:55:32;13.70;99.90
59855;DHT22;45732;52.850;6.896;2023-03-17T11:00:26;13.80;99.90
59855;DHT22;45732;52.850;6.896;2023-03-17T11:02:58;13.90;99.90
59855;DHT22;45732;52.850;6.896;2023-03-17T11:05:28;13.90;99.90
59855;DHT22;45732;52.850;6.896;2023-03-17T11:08:17;14.10;99.90
59855;DHT22;45732;52.850;6.896;2023-03-17T11:10:44;14.10;99.90
59855;DHT22;45732;52.850;6.896;2023-03-17T11:13:15;14.00;99.90
59855;DHT22;45732;52.850;6.896;2023-03-17T11:18:37;14.20;99.90
59855;DHT22;45732;52.850;6.896;2023-03-17T11:21:10;14.20;99.90
59855;DHT22;45732;52.850;6.896;2023-03-17T11:35:09;14.40;99.90
59855;DHT22;45732;52.850;6.896;2023-03-17T11:38:16;14.60;99.90
59855;DHT22;45732;52.850;6.896;2023-03-17T11:41:13;14.50;99.90
59855;DHT22;45732;52.850;6.896;2023-03-17T11:49:10;14.80;99.90
59855;DHT22;45732;52.850;6.896;2023-03-17T11:52:00;14.90;99.90
59855;DHT22;45732;52.850;6.896;2023-03-17T11:57:27;15.00;99.90
59855;DHT22;45732;52.850;6.896;2023-03-17T12:00:05;15.00;99.90
59855;DHT22;45732;52.850;6.896;2023-03-17T12:05:04;14.90;99.90
59855;DHT22;45732;52.850;6.896;2023-03-17T12:08:00;14.90;99.90
59855;DHT22;45732;52.850;6.896;2023-03-17T12:10:36;14.90;99.90
59855;DHT22;45732;52.850;6.896;2023-03-17T12:13:19;14.80;99.90
59855;DHT22;45732;52.850;6.896;2023-03-17T12:15:55;14.70;99.90
59855;DHT22;45732;52.850;6.896;2023-03-17T12:18:38;14.70;99.90
59855;DHT22;45732;52.850;6.896;2023-03-17T12:24:30;14.80;99.90
59855;DHT22;45732;52.850;6.896;2023-03-17T12:27:08;14.80;99.90
59855;DHT22;45732;52.850;6.896;2023-03-17T12:32:28;14.80;99.90
59855;DHT22;45732;52.850;6.896;2023-03-17T12:35:01;14.80;99.90
59855;DHT22;45732;52.850;6.896;2023-03-17T12:37:29;14.80;99.90
59855;DHT22;45732;52.850;6.896;2023-03-17T12:40:00;14.80;99.90
59855;DHT22;45732;52.850;6.896;2023-03-17T12:52:54;14.60;99.90
59855;DHT22;45732;52.850;6.896;2023-03-17T12:55:26;14.70;99.90
59855;DHT22;45732;52.850;6.896;2023-03-17T12:58:04;14.60;99.90
59855;DHT22;45732;52.850;6.896;2023-03-17T13:00:33;14.60;99.90
59855;DHT22;45732;52.850;6.896;2023-03-17T13:03:32;14.60;99.90
59855;DHT22;45732;52.850;6.896;2023-03-17T13:06:04;14.60;99.90
59855;DHT22;45732;52.850;6.896;2023-03-17T13:08:41;14.60;99.90
59855;DHT22;45732;52.850;6.896;2023-03-17T13:11:27;14.60;99.90
59855;DHT22;45732;52.850;6.896;2023-03-17T13:19:20;14.90;99.90
59855;DHT22;45732;52.850;6.896;2023-03-17T13:30:41;15.10;99.90
59855;DHT22;45732;52.850;6.896;2023-03-17T13:33:01;15.10;99.90
59855;DHT22;45732;52.850;6.896;2023-03-17T13:35:51;15.10;99.90
59855;DHT22;45732;52.850;6.896;2023-03-17T13:38:49;15.20;99.90
59855;DHT22;45732;52.850;6.896;2023-03-17T13:41:33;15.20;99.90
59855;DHT22;45732;52.850;6.896;2023-03-17T13:49:56;15.20;99.90
59855;DHT22;45732;52.850;6.896;2023-03-17T13:52:31;15.20;99.90
59855;DHT22;45732;52.850;6.896;2023-03-17T13:55:31;15.20;99.90
59855;DHT22;45732;52.850;6.896;2023-03-17T14:00:32;15.30;99.90
59855;DHT22;45732;52.850;6.896;2023-03-17T14:03:36;15.40;99.90
59855;DHT22;45732;52.850;6.896;2023-03-17T14:06:03;15.40;99.90
59855;DHT22;45732;52.850;6.896;2023-03-17T14:08:35;15.40;99.90
59855;DHT22;45732;52.850;6.896;2023-03-17T14:11:06;15.40;99.90
59855;DHT22;45732;52.850;6.896;2023-03-17T14:13:45;15.40;99.90
59855;DHT22;45732;52.850;6.896;2023-03-17T14:16:17;15.40;99.90
59855;DHT22;45732;52.850;6.896;2023-03-17T14:18:48;15.40;99.90
59855;DHT22;45732;52.850;6.896;2023-03-17T14:21:20;15.40;99.90
59855;DHT22;45732;52.850;6.896;2023-03-17T14:23:58;15.30;99.90
59855;DHT22;45732;52.850;6.896;2023-03-17T14:26:25;15.30;99.90
59855;DHT22;45732;52.850;6.896;2023-03-17T14:28:52;15.20;99.90
59855;DHT22;45732;52.850;6.896;2023-03-17T14:31:25;15.20;99.90
59855;DHT22;45732;52.850;6.896;2023-03-17T14:33:57;15.20;99.90
59855;DHT22;45732;52.850;6.896;2023-03-17T14:36:24;15.10;99.90
59855;DHT22;45732;52.850;6.896;2023-03-17T14:38:52;15.10;99.90
59855;DHT22;45732;52.850;6.896;2023-03-17T14:41:21;15.10;99.90
59855;DHT22;45732;52.850;6.896;2023-03-17T14:43:48;15.10;99.90
59855;DHT22;45732;52.850;6.896;2023-03-17T14:46:21;15.10;99.90
59855;DHT22;45732;52.850;6.896;2023-03-17T14:48:56;15.10;99.90
59855;DHT22;45732;52.850;6.896;2023-03-17T14:51:23;15.10;99.90
59855;DHT22;45732;52.850;6.896;2023-03-17T14:53:52;15.10;99.90
59855;DHT22;45732;52.850;6.896;2023-03-17T14:56:36;15.20;99.90
59855;DHT22;45732;52.850;6.896;2023-03-17T14:59:16;15.20;99.90
59855;DHT22;45732;52.850;6.896;2023-03-17T15:01:44;15.20;99.90
59855;DHT22;45732;52.850;6.896;2023-03-17T15:04:17;15.20;99.90
59855;DHT22;45732;52.850;6.896;2023-03-17T15:06:55;15.20;99.90
59855;DHT22;45732;52.850;6.896;2023-03-17T15:09:34;15.20;99.90
59855;DHT22;45732;52.850;6.896;2023-03-17T15:12:05;15.20;99.90
59855;DHT22;45732;52.850;6.896;2023-03-17T15:14:34;15.20;99.90
59855;DHT22;45732;52.850;6.896;2023-03-17T15:17:02;15.20;99.90
59855;DHT22;45732;52.850;6.896;2023-03-17T15:19:38;15.10;99.90
59855;DHT22;45732;52.850;6.896;2023-03-17T15:27:26;15.10;99.90
59855;DHT22;45732;52.850;6.896;2023-03-17T15:29:52;15.00;99.90
59855;DHT22;45732;52.850;6.896;2023-03-17T15:32:23;15.10;99.90
59855;DHT22;45732;52.850;6.896;2023-03-17T15:34:52;15.00;99.90
59855;DHT22;45732;52.850;6.896;2023-03-17T15:37:21;15.10;99.90
59855;DHT22;45732;52.850;6.896;2023-03-17T15:39:48;15.10;99.90
59855;DHT22;45732;52.850;6.896;2023-03-17T15:42:15;15.10;99.90
59855;DHT22;45732;52.850;6.896;2023-03-17T15:44:42;15.10;99.90
59855;DHT22;45732;52.850;6.896;2023-03-17T15:47:14;15.10;99.90
59855;DHT22;45732;52.850;6.896;2023-03-17T15:49:45;15.00;99.90
59855;DHT22;45732;52.850;6.896;2023-03-17T15:52:20;15.00;99.90
59855;DHT22;45732;52.850;6.896;2023-03-17T15:54:49;15.00;99.90
59855;DHT22;45732;52.850;6.896;2023-03-17T15:57:15;15.00;99.90
59855;DHT22;45732;52.850;6.896;2023-03-17T15:59:41;15.00;99.90
59855;DHT22;45732;52.850;6.896;2023-03-17T16:02:28;14.90;99.90
59855;DHT22;45732;52.850;6.896;2023-03-17T16:04:56;14.90;99.90
59855;DHT22;45732;52.850;6.896;2023-03-17T16:07:24;14.90;99.90
59855;DHT22;45732;52.850;6.896;2023-03-17T16:09:50;14.80;99.90
59855;DHT22;45732;52.850;6.896;2023-03-17T16:12:17;14.80;99.90
59855;DHT22;45732;52.850;6.896;2023-03-17T16:14:43;14.80;99.90
59855;DHT22;45732;52.850;6.896;2023-03-17T16:19:43;14.70;99.90
59855;DHT22;45732;52.850;6.896;2023-03-17T16:22:32;14.70;99.90
59855;DHT22;45732;52.850;6.896;2023-03-17T16:24:58;14.70;99.90
59855;DHT22;45732;52.850;6.896;2023-03-17T16:27:24;14.70;99.90
59855;DHT22;45732;52.850;6.896;2023-03-17T16:29:50;14.60;99.90
59855;DHT22;45732;52.850;6.896;2023-03-17T16:32:15;14.60;99.90
59855;DHT22;45732;52.850;6.896;2023-03-17T16:34:41;14.60;99.90
59855;DHT22;45732;52.850;6.896;2023-03-17T16:37:14;14.50;99.90
59855;DHT22;45732;52.850;6.896;2023-03-17T16:39:40;14.40;99.90
59855;DHT22;45732;52.850;6.896;2023-03-17T16:42:24;14.40;99.90
59855;DHT22;45732;52.850;6.896;2023-03-17T16:44:51;14.40;99.90
59855;DHT22;45732;52.850;6.896;2023-03-17T16:47:16;14.40;99.90
59855;DHT22;45732;52.850;6.896;2023-03-17T16:49:42;14.40;99.90
59855;DHT22;45732;52.850;6.896;2023-03-17T16:52:08;14.30;99.90
59855;DHT22;45732;52.850;6.896;2023-03-17T16:54:34;14.30;99.90
59855;DHT22;45732;52.850;6.896;2023-03-17T16:57:00;14.20;99.90
59855;DHT22;45732;52.850;6.896;2023-03-17T16:59:26;14.30;99.90
59855;DHT22;45732;52.850;6.896;2023-03-17T17:01:56;14.20;99.90
59855;DHT22;45732;52.850;6.896;2023-03-17T17:04:22;14.20;99.90
59855;DHT22;45732;52.850;6.896;2023-03-17T17:06:50;14.10;99.90
59855;DHT22;45732;52.850;6.896;2023-03-17T17:09:17;14.10;99.90
59855;DHT22;45732;52.850;6.896;2023-03-17T17:11:42;14.10;99.90
59855;DHT22;45732;52.850;6.896;2023-03-17T17:14:08;14.00;99.90
59855;DHT22;45732;52.850;6.896;2023-03-17T17:16:35;14.00;99.90
59855;DHT22;45732;52.850;6.896;2023-03-17T17:19:02;13.90;99.90
59855;DHT22;45732;52.850;6.896;2023-03-17T17:21:28;13.90;99.90
59855;DHT22;45732;52.850;6.896;2023-03-17T17:23:56;13.80;99.90
59855;DHT22;45732;52.850;6.896;2023-03-17T17:26:23;13.80;99.90